createdAt,value
2019-01-29T00:01:25.753Z,0.20
2019-01-29T00:03:52.753Z,0.20
2019-01-29T00:06:19.932Z,0.20
2019-01-29T00:08:47.031Z,0.20
2019-01-29T00:11:14.001Z,0.20
2019-01-29T00:13:41.043Z,0.10
2019-01-29T00:16:08.162Z,0.20
2019-01-29T00:18:35.181Z,0.10
2019-01-29T00:21:02.251Z,0.10
2019-01-29T00:23:29.379Z,0.20
2019-01-29T00:25:56.913Z,0.10
2019-01-29T00:28:24.201Z,0.20
2019-01-29T00:30:51.188Z,0.10
2019-01-29T00:33:18.320Z,0.10
2019-01-29T00:35:45.506Z,0.10
2019-01-29T00:38:12.495Z,0.10
2019-01-29T00:40:39.447Z,0.10
2019-01-29T00:43:07.446Z,0.00
2019-01-29T00:45:34.424Z,0.00
2019-01-29T00:48:01.615Z,0.00
2019-01-29T00:50:28.741Z,0.00
2019-01-29T00:52:55.714Z,0.00
2019-01-29T00:55:22.802Z,0.00
2019-01-29T00:57:49.746Z,0.00
2019-01-29T01:00:18.785Z,0.10
2019-01-29T01:02:46.172Z,0.10
2019-01-29T01:05:14.138Z,0.10
2019-01-29T01:07:41.235Z,0.10
2019-01-29T01:10:10.108Z,0.20
2019-01-29T01:12:37.362Z,0.20
2019-01-29T01:15:06.146Z,0.20
2019-01-29T01:17:33.392Z,0.30
2019-01-29T01:20:00.449Z,0.30
2019-01-29T01:22:27.514Z,0.30
2019-01-29T01:24:54.491Z,0.30
2019-01-29T01:27:21.655Z,0.30
2019-01-29T01:29:48.757Z,0.30
2019-01-29T01:32:15.731Z,0.30
2019-01-29T01:34:42.963Z,0.30
2019-01-29T01:37:10.211Z,0.30
2019-01-29T01:39:37.230Z,0.30
2019-01-29T01:42:04.231Z,0.40
2019-01-29T01:44:31.450Z,0.30
2019-01-29T01:46:58.487Z,0.30
2019-01-29T01:49:25.535Z,0.30
2019-01-29T01:51:52.485Z,0.30
2019-01-29T01:54:19.808Z,0.30
2019-01-29T01:56:46.819Z,0.30
2019-01-29T01:59:13.812Z,0.30
2019-01-29T02:01:41.042Z,0.40
2019-01-29T02:04:08.041Z,0.40
2019-01-29T02:06:35.102Z,0.40
2019-01-29T02:09:05.922Z,0.40
2019-01-29T02:11:32.940Z,0.40
2019-01-29T02:13:59.935Z,0.40
2019-01-29T02:16:27.195Z,0.40
2019-01-29T02:18:54.228Z,0.40
2019-01-29T02:21:21.486Z,0.40
2019-01-29T02:23:48.527Z,0.40
2019-01-29T02:26:15.622Z,0.40
2019-01-29T02:28:42.699Z,0.30
2019-01-29T02:31:09.690Z,0.30
2019-01-29T02:33:36.659Z,0.30
2019-01-29T02:36:03.774Z,0.30
2019-01-29T02:38:30.765Z,0.30
2019-01-29T02:40:58.117Z,0.30
2019-01-29T02:43:25.439Z,0.30
2019-01-29T02:45:52.721Z,0.30
2019-01-29T02:48:20.149Z,0.30
2019-01-29T02:50:47.419Z,0.30
2019-01-29T02:53:18.450Z,0.30
2019-01-29T02:55:44.271Z,0.30
2019-01-29T02:58:11.657Z,0.30
2019-01-29T03:00:38.653Z,0.30
2019-01-29T03:03:05.654Z,0.30
2019-01-29T03:05:32.768Z,0.30
2019-01-29T03:08:00.875Z,0.30
2019-01-29T03:10:46.611Z,0.40
2019-01-29T03:13:13.983Z,0.40
2019-01-29T03:15:40.960Z,0.40
2019-01-29T03:18:08.174Z,0.40
2019-01-29T03:20:35.535Z,0.40
2019-01-29T03:23:02.729Z,0.50
2019-01-29T03:25:30.256Z,0.50
2019-01-29T03:27:57.426Z,0.50
2019-01-29T03:30:24.640Z,0.50
2019-01-29T03:32:51.819Z,0.50
2019-01-29T03:35:19.114Z,0.50
2019-01-29T03:37:46.551Z,0.50
2019-01-29T03:40:16.298Z,0.50
2019-01-29T03:42:43.377Z,0.50
2019-01-29T03:45:12.873Z,0.60
2019-01-29T03:47:40.058Z,0.60
2019-01-29T03:50:07.679Z,0.60
2019-01-29T03:52:34.983Z,0.60
2019-01-29T03:55:02.314Z,0.60
2019-01-29T03:57:29.303Z,0.60
2019-01-29T03:59:56.525Z,0.60
2019-01-29T04:02:23.636Z,0.60
2019-01-29T04:04:51.228Z,0.60
2019-01-29T04:07:18.406Z,0.60
2019-01-29T04:09:45.572Z,0.60
2019-01-29T04:12:12.576Z,0.60
2019-01-29T04:14:39.655Z,0.60
2019-01-29T04:17:06.916Z,0.60
2019-01-29T04:19:34.097Z,0.60
2019-01-29T04:22:01.386Z,0.60
2019-01-29T04:24:28.909Z,0.70
2019-01-29T04:26:56.369Z,0.60
2019-01-29T04:29:23.346Z,0.60
2019-01-29T04:31:50.328Z,0.70
2019-01-29T04:34:17.624Z,0.70
2019-01-29T04:36:45.000Z,0.70
2019-01-29T04:39:11.971Z,0.70
2019-01-29T04:41:38.981Z,0.70
2019-01-29T04:44:06.202Z,0.80
2019-01-29T04:46:33.361Z,0.80
2019-01-29T04:49:00.437Z,0.70
2019-01-29T04:51:27.443Z,0.80
2019-01-29T04:53:57.574Z,0.80
2019-01-29T04:56:23.322Z,0.80
2019-01-29T04:58:50.659Z,0.80
2019-01-29T05:01:18.479Z,0.80
2019-01-29T05:03:45.995Z,0.80
2019-01-29T05:06:13.055Z,0.80
2019-01-29T05:08:40.060Z,0.80
2019-01-29T05:11:07.225Z,0.90
2019-01-29T05:13:34.400Z,0.80
2019-01-29T05:16:01.814Z,0.80
2019-01-29T05:18:29.237Z,0.80
2019-01-29T05:20:56.555Z,0.80
2019-01-29T05:23:23.708Z,0.90
2019-01-29T05:25:50.806Z,0.80
2019-01-29T05:28:17.892Z,0.90
2019-01-29T05:30:44.867Z,0.90
2019-01-29T05:33:11.883Z,0.90
2019-01-29T05:35:38.939Z,0.80
2019-01-29T05:38:06.044Z,0.90
2019-01-29T05:40:33.125Z,0.90
2019-01-29T05:43:00.104Z,0.90
2019-01-29T05:45:27.371Z,0.80
2019-01-29T05:47:54.432Z,0.80
2019-01-29T05:50:21.758Z,0.80
2019-01-29T05:52:48.974Z,0.80
2019-01-29T05:55:16.253Z,0.80
2019-01-29T05:57:43.425Z,0.80
2019-01-29T06:00:16.559Z,0.90
2019-01-29T06:02:44.172Z,0.80
2019-01-29T06:05:11.473Z,0.80
2019-01-29T06:07:38.883Z,0.80
2019-01-29T06:10:06.833Z,0.80
2019-01-29T06:12:33.942Z,0.90
2019-01-29T06:15:00.939Z,0.90
2019-01-29T06:17:28.160Z,0.90
2019-01-29T06:19:55.290Z,0.80
2019-01-29T06:22:22.303Z,0.80
2019-01-29T06:24:49.627Z,0.80
2019-01-29T06:27:17.207Z,0.80
2019-01-29T06:29:44.174Z,0.80
2019-01-29T06:32:11.482Z,0.80
2019-01-29T06:34:39.223Z,0.70
2019-01-29T06:37:06.659Z,0.80
2019-01-29T06:39:34.328Z,0.80
2019-01-29T06:42:01.539Z,0.80
2019-01-29T06:44:28.671Z,0.80
2019-01-29T06:46:55.789Z,0.80
2019-01-29T06:49:22.894Z,0.80
2019-01-29T06:51:50.054Z,0.90
2019-01-29T06:54:17.428Z,0.90
2019-01-29T06:56:44.643Z,0.90
2019-01-29T06:59:11.882Z,0.80
2019-01-29T07:01:38.984Z,0.90
2019-01-29T07:04:06.235Z,0.90
2019-01-29T07:06:33.739Z,0.90
2019-01-29T07:09:00.873Z,1.00
2019-01-29T07:11:28.024Z,1.00
2019-01-29T07:13:55.206Z,1.00
2019-01-29T07:16:29.938Z,1.00
2019-01-29T07:19:01.810Z,1.10
2019-01-29T07:21:29.403Z,1.10
2019-01-29T07:23:56.583Z,1.10
2019-01-29T07:26:23.680Z,1.00
2019-01-29T07:28:51.344Z,1.00
2019-01-29T07:31:18.562Z,1.00
2019-01-29T07:33:45.569Z,1.00
2019-01-29T07:36:12.874Z,1.10
2019-01-29T07:38:39.939Z,1.10
2019-01-29T07:41:07.062Z,1.10
2019-01-29T07:43:34.216Z,1.10
2019-01-29T07:46:02.620Z,1.10
2019-01-29T07:48:30.850Z,1.20
2019-01-29T07:50:57.953Z,1.30
2019-01-29T07:53:25.371Z,1.30
2019-01-29T07:55:53.597Z,1.30
2019-01-29T07:58:20.835Z,1.20
2019-01-29T08:00:47.988Z,1.30
2019-01-29T08:03:15.142Z,1.20
2019-01-29T08:05:42.391Z,1.30
2019-01-29T08:08:09.533Z,1.30
2019-01-29T08:10:36.905Z,1.30
2019-01-29T08:13:04.204Z,1.30
2019-01-29T08:15:31.350Z,1.20
2019-01-29T08:17:58.385Z,1.20
2019-01-29T08:20:25.981Z,1.20
2019-01-29T08:22:53.196Z,1.20
2019-01-29T08:25:20.663Z,1.20
2019-01-29T08:27:47.886Z,1.20
2019-01-29T08:30:15.179Z,1.30
2019-01-29T08:32:42.592Z,1.30
2019-01-29T08:35:10.236Z,1.30
2019-01-29T08:37:37.566Z,1.30
2019-01-29T08:40:04.996Z,1.30
2019-01-29T08:42:31.981Z,1.30
2019-01-29T08:44:59.424Z,1.40
2019-01-29T08:47:26.541Z,1.40
2019-01-29T08:49:53.514Z,1.50
2019-01-29T08:52:20.624Z,1.50
2019-01-29T08:54:47.741Z,1.50
2019-01-29T08:57:14.822Z,1.50
2019-01-29T08:59:41.907Z,1.50
2019-01-29T09:02:09.041Z,1.50
2019-01-29T09:04:36.155Z,1.60
2019-01-29T09:07:03.460Z,1.60
2019-01-29T09:09:30.716Z,1.70
2019-01-29T09:11:58.216Z,1.70
2019-01-29T09:14:25.316Z,1.80
2019-01-29T09:16:52.752Z,1.80
2019-01-29T09:19:19.772Z,1.90
2019-01-29T09:21:46.848Z,2.00
2019-01-29T09:24:14.271Z,2.10
2019-01-29T09:26:41.266Z,2.00
2019-01-29T09:29:08.358Z,2.10
2019-01-29T09:31:35.654Z,2.10
2019-01-29T09:34:03.238Z,2.10
2019-01-29T09:36:30.376Z,2.20
2019-01-29T09:38:57.378Z,2.30
2019-01-29T09:41:24.579Z,2.10
2019-01-29T09:43:51.882Z,2.00
2019-01-29T09:46:18.971Z,2.10
2019-01-29T09:48:47.138Z,2.10
2019-01-29T09:51:14.275Z,2.10
2019-01-29T09:53:41.538Z,2.10
2019-01-29T09:56:08.637Z,2.10
2019-01-29T09:58:35.713Z,2.10
2019-01-29T10:01:02.993Z,2.10
2019-01-29T10:03:30.120Z,2.20
2019-01-29T10:05:57.230Z,2.20
2019-01-29T10:08:24.546Z,2.20
2019-01-29T10:11:11.303Z,2.30
2019-01-29T10:13:38.366Z,2.40
2019-01-29T10:16:05.391Z,2.50
2019-01-29T10:18:32.399Z,2.60
2019-01-29T10:20:59.533Z,2.70
2019-01-29T10:23:26.847Z,2.60
2019-01-29T10:25:55.141Z,2.60
2019-01-29T10:28:22.195Z,2.70
2019-01-29T10:30:49.500Z,2.70
2019-01-29T10:33:16.678Z,2.70
2019-01-29T10:35:43.658Z,2.60
2019-01-29T10:38:10.665Z,2.50
2019-01-29T10:40:37.916Z,2.40
2019-01-29T10:43:05.613Z,2.40
2019-01-29T10:45:32.801Z,2.40
2019-01-29T10:47:59.905Z,2.40
2019-01-29T10:50:28.399Z,2.40
2019-01-29T10:52:55.739Z,2.40
2019-01-29T10:55:23.074Z,2.60
2019-01-29T10:57:50.248Z,2.60
2019-01-29T11:00:19.862Z,2.70
2019-01-29T11:02:47.022Z,2.70
2019-01-29T11:05:15.880Z,2.70
2019-01-29T11:07:42.899Z,2.70
2019-01-29T11:10:11.037Z,2.70
2019-01-29T11:12:38.423Z,2.80
2019-01-29T11:15:09.321Z,2.80
2019-01-29T11:17:36.367Z,2.90
2019-01-29T11:20:05.642Z,2.90
2019-01-29T11:22:32.890Z,3.10
2019-01-29T11:24:59.878Z,3.10
2019-01-29T11:27:26.983Z,3.30
2019-01-29T11:29:54.163Z,3.20
2019-01-29T11:32:21.431Z,3.30
2019-01-29T11:34:48.533Z,3.30
2019-01-29T11:37:15.582Z,3.30
2019-01-29T11:39:42.669Z,3.20
2019-01-29T11:42:10.855Z,3.20
2019-01-29T11:44:39.076Z,3.10
2019-01-29T11:47:06.640Z,3.10
2019-01-29T11:49:34.259Z,3.10
2019-01-29T11:52:01.272Z,3.20
2019-01-29T11:54:28.501Z,3.20
2019-01-29T11:56:55.517Z,3.20
2019-01-29T11:59:22.510Z,3.10
2019-01-29T12:01:49.929Z,3.20
2019-01-29T12:04:17.147Z,3.30
2019-01-29T12:06:44.362Z,3.30
2019-01-29T12:09:11.676Z,3.40
2019-01-29T12:11:38.863Z,3.50
2019-01-29T12:14:06.079Z,3.50
2019-01-29T12:16:33.257Z,3.50
2019-01-29T12:19:00.576Z,3.60
2019-01-29T12:21:27.677Z,3.50
2019-01-29T12:23:54.747Z,3.50
2019-01-29T12:26:21.888Z,3.60
2019-01-29T12:28:49.230Z,3.60
2019-01-29T12:31:16.265Z,3.70
2019-01-29T12:33:43.333Z,3.50
2019-01-29T12:36:10.545Z,3.40
2019-01-29T12:38:37.889Z,3.30
2019-01-29T12:41:05.255Z,3.30
2019-01-29T12:43:32.407Z,3.40
2019-01-29T12:45:59.408Z,3.40
2019-01-29T12:48:26.625Z,3.50
2019-01-29T12:50:58.371Z,3.50
2019-01-29T12:53:30.133Z,3.60
2019-01-29T12:55:57.559Z,3.60
2019-01-29T12:58:25.056Z,3.70
2019-01-29T13:00:54.694Z,3.60
2019-01-29T13:03:21.725Z,3.70
2019-01-29T13:05:48.807Z,3.70
2019-01-29T13:08:16.200Z,3.80
2019-01-29T13:10:43.469Z,3.70
2019-01-29T13:13:10.826Z,4.00
2019-01-29T13:15:38.830Z,3.90
2019-01-29T13:18:06.084Z,3.70
2019-01-29T13:20:33.263Z,3.60
2019-01-29T13:23:00.454Z,3.60
2019-01-29T13:25:28.545Z,3.60
2019-01-29T13:27:55.868Z,3.60
2019-01-29T13:30:26.643Z,3.70
2019-01-29T13:32:53.951Z,3.90
2019-01-29T13:35:22.532Z,3.90
2019-01-29T13:37:49.658Z,3.90
2019-01-29T13:40:17.012Z,3.90
2019-01-29T13:42:44.912Z,3.90
2019-01-29T13:45:12.413Z,3.90
2019-01-29T13:47:39.438Z,3.90
2019-01-29T13:50:10.260Z,3.90
2019-01-29T13:52:37.642Z,3.90
2019-01-29T13:55:07.388Z,3.80
2019-01-29T13:57:35.005Z,3.90
2019-01-29T14:00:02.919Z,3.80
2019-01-29T14:02:29.978Z,3.80
2019-01-29T14:04:56.988Z,3.80
2019-01-29T14:07:24.237Z,3.80
2019-01-29T14:09:51.645Z,3.80
2019-01-29T14:12:18.999Z,3.80
2019-01-29T14:14:46.233Z,3.80
2019-01-29T14:17:13.424Z,3.70
2019-01-29T14:19:40.534Z,3.80
2019-01-29T14:22:07.541Z,3.80
2019-01-29T14:24:34.892Z,3.80
2019-01-29T14:27:02.061Z,3.80
2019-01-29T14:29:30.161Z,3.90
2019-01-29T14:31:57.381Z,3.80
2019-01-29T14:34:24.478Z,3.80
2019-01-29T14:36:51.497Z,3.80
2019-01-29T14:39:58.223Z,3.80
2019-01-29T14:42:25.370Z,3.70
2019-01-29T14:44:54.029Z,3.80
2019-01-29T14:47:21.203Z,3.70
2019-01-29T14:49:48.218Z,3.70
2019-01-29T14:52:15.469Z,3.70
2019-01-29T14:54:43.172Z,3.60
2019-01-29T14:57:10.394Z,3.60
2019-01-29T14:59:37.776Z,3.50
2019-01-29T15:02:05.116Z,3.60
2019-01-29T15:04:32.885Z,3.60
2019-01-29T15:07:00.070Z,3.60
2019-01-29T15:09:27.214Z,3.60
2019-01-29T15:11:54.611Z,3.60
2019-01-29T15:14:21.708Z,3.60
2019-01-29T15:17:07.278Z,3.50
2019-01-29T15:19:34.866Z,3.50
2019-01-29T15:22:01.963Z,3.50
2019-01-29T15:24:29.106Z,3.50
2019-01-29T15:26:56.226Z,3.50
2019-01-29T15:29:23.235Z,3.40
2019-01-29T15:31:50.365Z,3.50
2019-01-29T15:34:18.143Z,3.40
2019-01-29T15:36:45.889Z,3.50
2019-01-29T15:39:13.153Z,3.50
2019-01-29T15:41:40.745Z,3.50
2019-01-29T15:44:07.931Z,3.40
2019-01-29T15:46:35.339Z,3.50
2019-01-29T15:49:02.899Z,3.40
2019-01-29T15:51:29.957Z,3.30
2019-01-29T15:53:57.075Z,3.20
2019-01-29T15:56:24.063Z,3.20
2019-01-29T15:58:51.159Z,3.20
2019-01-29T16:01:18.139Z,3.10
2019-01-29T16:03:45.279Z,3.20
2019-01-29T16:06:12.307Z,3.20
2019-01-29T16:08:39.706Z,3.00
2019-01-29T16:11:06.699Z,2.90
2019-01-29T16:13:33.747Z,3.00
2019-01-29T16:16:01.005Z,2.90
2019-01-29T16:18:28.123Z,2.80
2019-01-29T16:20:55.452Z,3.00
2019-01-29T16:23:22.556Z,3.00
2019-01-29T16:25:49.671Z,2.90
2019-01-29T16:28:16.715Z,2.80
2019-01-29T16:30:43.820Z,2.80
2019-01-29T16:33:10.808Z,2.80
2019-01-29T16:35:38.064Z,2.90
2019-01-29T16:38:05.456Z,2.80
2019-01-29T16:40:33.140Z,2.80
2019-01-29T16:43:00.384Z,2.90
2019-01-29T16:45:30.435Z,2.90
2019-01-29T16:47:58.561Z,3.40
2019-01-29T16:50:25.805Z,3.10
2019-01-29T16:52:53.437Z,3.00
2019-01-29T16:55:20.767Z,2.90
2019-01-29T16:57:48.448Z,2.70
2019-01-29T17:00:18.853Z,2.70
2019-01-29T17:02:45.867Z,2.80
2019-01-29T17:05:13.176Z,2.80
2019-01-29T17:07:40.217Z,2.60
2019-01-29T17:10:08.892Z,2.60
2019-01-29T17:12:36.002Z,2.50
2019-01-29T17:15:04.625Z,2.40
2019-01-29T17:17:32.027Z,2.40
2019-01-29T17:19:59.269Z,2.30
2019-01-29T17:22:26.552Z,2.20
2019-01-29T17:24:53.590Z,2.20
2019-01-29T17:27:20.631Z,2.20
2019-01-29T17:29:47.764Z,2.20
2019-01-29T17:32:14.890Z,2.20
2019-01-29T17:34:41.915Z,2.10
2019-01-29T17:37:09.164Z,2.20
2019-01-29T17:39:36.484Z,2.20
2019-01-29T17:42:03.799Z,2.10
2019-01-29T17:44:30.958Z,2.10
2019-01-29T17:46:57.992Z,2.10
2019-01-29T17:49:25.132Z,2.00
2019-01-29T17:51:52.253Z,2.10
2019-01-29T17:54:19.510Z,2.10
2019-01-29T17:56:46.654Z,2.20
2019-01-29T17:59:13.867Z,2.10
2019-01-29T18:01:41.415Z,2.10
2019-01-29T18:04:08.666Z,2.20
2019-01-29T18:06:36.054Z,2.20
2019-01-29T18:09:08.052Z,2.10
2019-01-29T18:11:35.121Z,2.20
2019-01-29T18:14:02.315Z,2.10
2019-01-29T18:16:29.404Z,2.10
2019-01-29T18:18:56.519Z,2.00
2019-01-29T18:21:23.732Z,2.00
2019-01-29T18:23:50.714Z,2.10
2019-01-29T18:26:17.917Z,2.00
2019-01-29T18:28:44.911Z,1.90
2019-01-29T18:31:12.550Z,1.80
2019-01-29T18:33:39.890Z,1.90
2019-01-29T18:36:07.035Z,1.90
2019-01-29T18:38:34.043Z,1.90
2019-01-29T18:41:01.511Z,1.80
2019-01-29T18:43:28.828Z,1.90
2019-01-29T18:45:55.890Z,1.90
2019-01-29T18:48:22.930Z,1.80
2019-01-29T18:50:49.954Z,1.80
2019-01-29T18:53:18.193Z,1.80
2019-01-29T18:55:45.791Z,1.80
2019-01-29T18:58:15.068Z,1.80
2019-01-29T19:00:42.500Z,1.80
2019-01-29T19:03:09.544Z,1.80
2019-01-29T19:05:36.623Z,1.80
2019-01-29T19:08:03.924Z,1.70
2019-01-29T19:10:31.122Z,1.70
2019-01-29T19:12:58.233Z,1.90
2019-01-29T19:15:25.586Z,1.80
2019-01-29T19:17:52.814Z,1.80
2019-01-29T19:20:21.786Z,1.70
2019-01-29T19:22:49.069Z,1.90
2019-01-29T19:25:16.353Z,1.90
2019-01-29T19:27:43.805Z,1.90
2019-01-29T19:30:14.613Z,1.90
2019-01-29T19:32:41.737Z,1.80
2019-01-29T19:35:09.252Z,1.70
2019-01-29T19:37:36.362Z,1.60
2019-01-29T19:40:04.471Z,1.50
2019-01-29T19:42:31.722Z,1.50
2019-01-29T19:44:58.748Z,1.50
2019-01-29T19:47:25.923Z,1.40
2019-01-29T19:49:52.998Z,1.40
2019-01-29T19:52:21.718Z,1.30
2019-01-29T19:54:48.845Z,1.30
2019-01-29T19:57:16.151Z,1.30
2019-01-29T19:59:43.230Z,1.30
2019-01-29T20:02:10.940Z,1.30
2019-01-29T20:04:38.311Z,1.20
2019-01-29T20:07:06.299Z,1.20
2019-01-29T20:09:33.632Z,1.30
2019-01-29T20:12:01.074Z,1.20
2019-01-29T20:14:28.058Z,1.20
2019-01-29T20:16:55.131Z,1.20
2019-01-29T20:19:22.138Z,1.20
2019-01-29T20:21:49.142Z,1.20
2019-01-29T20:24:17.084Z,1.30
2019-01-29T20:26:44.672Z,1.20
2019-01-29T20:29:11.723Z,1.10
2019-01-29T20:31:38.806Z,1.00
2019-01-29T20:34:05.834Z,1.00
2019-01-29T20:36:32.859Z,1.10
2019-01-29T20:38:59.882Z,1.10
2019-01-29T20:41:27.311Z,1.20
2019-01-29T20:43:54.333Z,1.10
2019-01-29T20:46:22.511Z,1.00
2019-01-29T20:48:49.592Z,1.00
2019-01-29T20:51:16.934Z,1.00
2019-01-29T20:53:44.224Z,1.00
2019-01-29T20:56:11.433Z,1.00
2019-01-29T20:58:38.461Z,1.10
2019-01-29T21:01:05.474Z,1.00
2019-01-29T21:03:32.574Z,0.90
2019-01-29T21:05:59.571Z,1.00
2019-01-29T21:08:26.651Z,1.00
2019-01-29T21:10:53.702Z,1.00
2019-01-29T21:13:20.703Z,1.10
2019-01-29T21:15:47.774Z,1.20
2019-01-29T21:18:14.903Z,1.10
2019-01-29T21:20:42.055Z,1.10
2019-01-29T21:23:09.274Z,1.00
2019-01-29T21:25:36.659Z,1.10
2019-01-29T21:28:03.945Z,1.00
2019-01-29T21:30:36.634Z,1.00
2019-01-29T21:33:03.962Z,1.00
2019-01-29T21:35:31.077Z,1.00
2019-01-29T21:37:58.094Z,0.90
2019-01-29T21:40:25.483Z,0.80
2019-01-29T21:42:52.650Z,0.80
2019-01-29T21:45:19.849Z,0.80
2019-01-29T21:47:47.067Z,0.90
2019-01-29T21:50:19.449Z,0.90
2019-01-29T21:52:46.860Z,1.00
2019-01-29T21:55:14.494Z,0.80
2019-01-29T21:57:41.512Z,0.70
2019-01-29T22:00:13.555Z,0.60
2019-01-29T22:02:41.982Z,0.90
2019-01-29T22:05:10.027Z,1.10
2019-01-29T22:07:37.055Z,1.00
2019-01-29T22:10:04.895Z,0.80
2019-01-29T22:12:31.982Z,0.70
2019-01-29T22:14:59.288Z,0.70
2019-01-29T22:17:26.306Z,0.80
2019-01-29T22:19:53.408Z,0.60
2019-01-29T22:22:20.427Z,0.50
2019-01-29T22:24:47.455Z,0.50
2019-01-29T22:27:14.616Z,0.50
2019-01-29T22:29:41.970Z,0.40
2019-01-29T22:32:09.787Z,0.60
2019-01-29T22:34:38.008Z,0.60
2019-01-29T22:37:05.351Z,0.50
2019-01-29T22:39:32.806Z,0.60
2019-01-29T22:41:59.964Z,0.50
2019-01-29T22:44:27.317Z,0.60
2019-01-29T22:46:54.468Z,0.60
2019-01-29T22:49:21.438Z,0.50
2019-01-29T22:51:48.886Z,0.50
2019-01-29T22:54:15.860Z,0.40
2019-01-29T22:56:42.859Z,0.30
2019-01-29T22:59:09.851Z,0.50
2019-01-29T23:01:39.834Z,0.40
2019-01-29T23:04:18.470Z,0.40
2019-01-29T23:07:09.695Z,0.50
2019-01-29T23:09:36.896Z,0.40
2019-01-29T23:12:04.259Z,0.50
2019-01-29T23:14:31.668Z,0.50
2019-01-29T23:16:58.659Z,0.40
2019-01-29T23:19:25.966Z,0.40
2019-01-29T23:21:53.228Z,0.30
2019-01-29T23:24:20.624Z,0.30
2019-01-29T23:26:47.657Z,0.30
2019-01-29T23:29:17.046Z,0.30
2019-01-29T23:31:43.574Z,0.30
2019-01-29T23:34:10.527Z,0.50
2019-01-29T23:36:37.619Z,0.70
2019-01-29T23:39:07.227Z,0.70
2019-01-29T23:41:34.274Z,0.80
2019-01-29T23:44:01.338Z,0.70
2019-01-29T23:46:28.442Z,0.70
2019-01-29T23:48:55.431Z,0.60
2019-01-29T23:51:22.722Z,0.50
2019-01-29T23:53:49.821Z,0.70
2019-01-29T23:56:17.227Z,0.50
2019-01-29T23:58:44.353Z,0.60
